Time,TemperatureF,DewpointF,PressureIn,WindDirection,WindDirectionDegrees,WindSpeedMPH,WindSpeedGustMPH,Humidity,HourlyPrecipIn,Conditions,Clouds,dailyrainin,SolarRadiationWatts/m^2,SoftwareType,DateUTC
2013-09-27 00:13:00,69.0,61.0,-100.00,SSE,147,8.0,14.0,76,0.00,,,0.00,0.000000,,2013-09-27 05:13:00,
2013-09-27 00:23:00,69.0,61.0,-100.00,SSE,147,8.0,14.0,76,0.00,,,0.00,0.000000,,2013-09-27 05:23:00,
2013-09-27 00:34:00,69.0,61.0,-100.00,SSE,147,8.0,14.0,76,0.00,,,0.00,0.000000,,2013-09-27 05:34:00,
2013-09-27 00:43:00,69.0,61.0,-100.00,SSE,147,8.0,14.0,76,0.00,,,0.00,0.000000,,2013-09-27 05:43:00,
2013-09-27 01:22:00,69.0,61.0,-100.00,SSE,149,9.0,14.0,77,0.00,,,0.00,0.000000,,2013-09-27 06:22:00,
2013-09-27 01:32:00,69.0,61.0,-100.00,SSE,149,9.0,14.0,77,0.00,,,0.00,0.000000,,2013-09-27 06:32:00,
2013-09-27 01:43:00,69.0,61.0,-100.00,SSE,149,9.0,14.0,77,0.00,,,0.00,0.000000,,2013-09-27 06:43:00,
2013-09-27 02:12:00,68.0,61.0,-100.00,SSE,147,8.0,12.0,79,0.00,,,0.00,0.000000,,2013-09-27 07:12:00,
2013-09-27 02:22:00,68.0,61.0,-100.00,SSE,147,8.0,12.0,79,0.00,,,0.00,0.000000,,2013-09-27 07:22:00,
2013-09-27 02:32:00,68.0,61.0,-100.00,SSE,147,8.0,12.0,79,0.00,,,0.00,0.000000,,2013-09-27 07:32:00,
2013-09-27 02:43:00,68.0,61.0,-100.00,SSE,147,8.0,12.0,79,0.00,,,0.00,0.000000,,2013-09-27 07:43:00,
2013-09-27 03:11:00,67.0,61.0,-100.00,SE,144,9.0,13.0,80,0.00,,,0.00,0.000000,,2013-09-27 08:11:00,
2013-09-27 03:22:00,67.0,61.0,-100.00,SE,144,9.0,13.0,80,0.00,,,0.00,0.000000,,2013-09-27 08:22:00,
2013-09-27 03:32:00,67.0,61.0,-100.00,SE,144,9.0,13.0,80,0.00,,,0.00,0.000000,,2013-09-27 08:32:00,
2013-09-27 03:42:00,67.0,61.0,-100.00,SE,144,9.0,13.0,80,0.00,,,0.00,0.000000,,2013-09-27 08:42:00,
2013-09-27 04:12:00,66.0,60.0,-100.00,SE,145,9.0,13.0,81,0.00,,,0.00,0.000000,,2013-09-27 09:12:00,
2013-09-27 04:22:00,66.0,60.0,-100.00,SE,145,9.0,13.0,81,0.00,,,0.00,0.000000,,2013-09-27 09:22:00,
2013-09-27 04:33:00,66.0,60.0,-100.00,SE,145,9.0,13.0,81,0.00,,,0.00,0.000000,,2013-09-27 09:33:00,
2013-09-27 04:44:00,66.0,60.0,-100.00,SE,145,9.0,13.0,81,0.00,,,0.00,0.000000,,2013-09-27 09:44:00,
2013-09-27 05:13:00,66.0,61.0,-100.00,SE,142,10.0,15.0,83,0.00,,,0.00,0.000000,,2013-09-27 10:13:00,
2013-09-27 05:23:00,66.0,61.0,-100.00,SE,142,10.0,15.0,83,0.00,,,0.00,0.000000,,2013-09-27 10:23:00,
2013-09-27 05:33:00,66.0,61.0,-100.00,SE,142,10.0,15.0,83,0.00,,,0.00,0.000000,,2013-09-27 10:33:00,
2013-09-27 05:42:00,66.0,61.0,-100.00,SE,142,10.0,15.0,83,0.00,,,0.00,0.000000,,2013-09-27 10:42:00,
2013-09-27 06:12:00,65.0,61.0,-100.00,SE,142,9.0,15.0,86,0.00,,,0.00,0.000000,,2013-09-27 11:12:00,
2013-09-27 06:22:00,65.0,61.0,-100.00,SE,142,9.0,15.0,86,0.00,,,0.00,0.000000,,2013-09-27 11:22:00,
2013-09-27 06:33:00,65.0,61.0,-100.00,SE,142,9.0,15.0,86,0.00,,,0.00,0.000000,,2013-09-27 11:33:00,
2013-09-27 06:43:00,65.0,61.0,-100.00,SE,142,9.0,15.0,86,0.00,,,0.00,0.000000,,2013-09-27 11:43:00,
2013-09-27 07:12:00,64.0,60.0,-100.00,SE,140,9.0,14.0,88,0.00,,,0.00,0.000000,,2013-09-27 12:12:00,
2013-09-27 07:21:00,64.0,60.0,-100.00,SE,140,9.0,14.0,88,0.00,,,0.00,0.000000,,2013-09-27 12:21:00,
2013-09-27 07:32:00,64.0,60.0,-100.00,SE,140,9.0,14.0,88,0.00,,,0.00,0.000000,,2013-09-27 12:32:00,
2013-09-27 07:42:00,64.0,60.0,-100.00,SE,140,9.0,14.0,88,0.00,,,0.00,0.000000,,2013-09-27 12:42:00,
2013-09-27 08:11:00,65.0,61.0,-100.00,SE,138,9.0,14.0,87,0.00,,,0.00,15.000000,,2013-09-27 13:11:00,
2013-09-27 08:22:00,65.0,61.0,-100.00,SE,138,9.0,14.0,87,0.00,,,0.00,15.000000,,2013-09-27 13:22:00,
2013-09-27 08:32:00,65.0,61.0,-100.00,SE,138,9.0,14.0,87,0.00,,,0.00,15.000000,,2013-09-27 13:32:00,
2013-09-27 08:42:00,65.0,61.0,-100.00,SE,138,9.0,14.0,87,0.00,,,0.00,15.000000,,2013-09-27 13:42:00,
2013-09-27 09:11:00,69.0,62.0,-100.00,SSE,153,11.0,16.0,79,0.00,,,0.00,142.000000,,2013-09-27 14:11:00,
2013-09-27 09:22:00,69.0,62.0,-100.00,SSE,153,11.0,16.0,79,0.00,,,0.00,142.000000,,2013-09-27 14:22:00,
2013-09-27 09:32:00,69.0,62.0,-100.00,SSE,153,11.0,16.0,79,0.00,,,0.00,142.000000,,2013-09-27 14:32:00,
2013-09-27 09:42:00,69.0,62.0,-100.00,SSE,153,11.0,16.0,79,0.00,,,0.00,142.000000,,2013-09-27 14:42:00,
2013-09-27 10:11:00,75.0,64.0,-100.00,SSE,164,11.0,18.0,69,0.00,,,0.00,326.000000,,2013-09-27 15:11:00,
2013-09-27 10:21:00,75.0,64.0,-100.00,SSE,164,11.0,18.0,69,0.00,,,0.00,326.000000,,2013-09-27 15:21:00,
2013-09-27 10:33:00,75.0,64.0,-100.00,SSE,164,11.0,18.0,69,0.00,,,0.00,326.000000,,2013-09-27 15:33:00,
2013-09-27 10:44:00,75.0,64.0,-100.00,SSE,164,11.0,18.0,69,0.00,,,0.00,326.000000,,2013-09-27 15:44:00,
2013-09-27 11:13:00,79.0,62.0,-100.00,South,170,15.0,20.0,57,0.00,,,0.00,518.000000,,2013-09-27 16:13:00,
2013-09-27 11:24:00,79.0,62.0,-100.00,South,170,15.0,20.0,57,0.00,,,0.00,518.000000,,2013-09-27 16:24:00,
2013-09-27 11:34:00,79.0,62.0,-100.00,South,170,15.0,20.0,57,0.00,,,0.00,518.000000,,2013-09-27 16:34:00,
2013-09-27 11:44:00,79.0,62.0,-100.00,South,170,15.0,20.0,57,0.00,,,0.00,518.000000,,2013-09-27 16:44:00,
2013-09-27 12:13:00,83.0,64.0,-100.00,SSE,163,12.0,19.0,52,0.00,,,0.00,672.000000,,2013-09-27 17:13:00,
2013-09-27 12:23:00,83.0,64.0,-100.00,SSE,163,12.0,19.0,52,0.00,,,0.00,672.000000,,2013-09-27 17:23:00,
2013-09-27 12:34:00,83.0,64.0,-100.00,SSE,163,12.0,19.0,52,0.00,,,0.00,672.000000,,2013-09-27 17:34:00,
2013-09-27 12:43:00,83.0,64.0,-100.00,SSE,163,12.0,19.0,52,0.00,,,0.00,672.000000,,2013-09-27 17:43:00,
2013-09-27 13:13:00,85.0,63.0,-100.00,SSE,163,15.0,21.0,48,0.00,,,0.00,774.000000,,2013-09-27 18:13:00,
2013-09-27 13:22:00,85.0,63.0,-100.00,SSE,163,15.0,21.0,48,0.00,,,0.00,774.000000,,2013-09-27 18:22:00,
2013-09-27 13:33:00,85.0,63.0,-100.00,SSE,163,15.0,21.0,48,0.00,,,0.00,774.000000,,2013-09-27 18:33:00,
2013-09-27 13:43:00,85.0,63.0,-100.00,SSE,163,15.0,21.0,48,0.00,,,0.00,774.000000,,2013-09-27 18:43:00,
2013-09-27 14:12:00,86.0,60.0,-100.00,SSE,161,16.0,23.0,42,0.00,,,0.00,810.000000,,2013-09-27 19:12:00,
2013-09-27 14:22:00,86.0,60.0,-100.00,SSE,161,16.0,23.0,42,0.00,,,0.00,810.000000,,2013-09-27 19:22:00,
2013-09-27 14:32:00,86.0,60.0,-100.00,SSE,161,16.0,23.0,42,0.00,,,0.00,810.000000,,2013-09-27 19:32:00,
2013-09-27 14:42:00,86.0,60.0,-100.00,SSE,161,16.0,23.0,42,0.00,,,0.00,810.000000,,2013-09-27 19:42:00,
2013-09-27 15:12:00,86.0,61.0,-100.00,SSE,151,15.0,26.0,43,0.00,,,0.00,781.000000,,2013-09-27 20:12:00,
2013-09-27 15:22:00,86.0,61.0,-100.00,SSE,151,15.0,26.0,43,0.00,,,0.00,781.000000,,2013-09-27 20:22:00,
2013-09-27 15:32:00,86.0,61.0,-100.00,SSE,151,15.0,26.0,43,0.00,,,0.00,781.000000,,2013-09-27 20:32:00,
2013-09-27 15:43:00,86.0,61.0,-100.00,SSE,151,15.0,26.0,43,0.00,,,0.00,781.000000,,2013-09-27 20:43:00,
2013-09-27 16:22:00,85.0,61.0,-100.00,SSE,149,17.0,25.0,44,0.00,,,-99.99,687.000000,,2013-09-27 21:22:00,
2013-09-27 16:34:00,85.0,61.0,-100.00,SSE,149,17.0,25.0,44,0.00,,,-99.99,687.000000,,2013-09-27 21:34:00,
2013-09-27 16:44:00,85.0,61.0,-100.00,SSE,149,17.0,25.0,44,0.00,,,-99.99,687.000000,,2013-09-27 21:44:00,
2013-09-27 17:14:00,84.0,60.0,-100.00,SSE,152,14.0,24.0,45,0.00,,,0.00,532.000000,,2013-09-27 22:14:00,
2013-09-27 17:24:00,84.0,60.0,-100.00,SSE,152,14.0,24.0,45,0.00,,,0.00,532.000000,,2013-09-27 22:24:00,
2013-09-27 17:34:00,84.0,60.0,-100.00,SSE,152,14.0,24.0,45,0.00,,,0.00,532.000000,,2013-09-27 22:34:00,
2013-09-27 17:43:00,84.0,60.0,-100.00,SSE,152,14.0,24.0,45,0.00,,,0.00,532.000000,,2013-09-27 22:43:00,
2013-09-27 18:12:00,82.0,61.0,-100.00,SSE,153,10.0,21.0,49,0.00,,,0.00,332.000000,,2013-09-27 23:12:00,
2013-09-27 18:22:00,82.0,61.0,-100.00,SSE,153,10.0,21.0,49,0.00,,,0.00,332.000000,,2013-09-27 23:22:00,
2013-09-27 18:34:00,82.0,61.0,-100.00,SSE,153,10.0,21.0,49,0.00,,,0.00,332.000000,,2013-09-27 23:34:00,
2013-09-27 18:43:00,82.0,61.0,-100.00,SSE,153,10.0,21.0,49,0.00,,,0.00,332.000000,,2013-09-27 23:43:00,
2013-09-27 19:12:00,78.0,62.0,-100.00,SSE,147,9.0,16.0,57,0.00,,,0.00,123.000000,,2013-09-28 00:12:00,
2013-09-27 19:22:00,78.0,62.0,-100.00,SSE,147,9.0,16.0,57,0.00,,,0.00,123.000000,,2013-09-28 00:22:00,
2013-09-27 19:32:00,78.0,62.0,-100.00,SSE,147,9.0,16.0,57,0.00,,,0.00,123.000000,,2013-09-28 00:32:00,
2013-09-27 19:42:00,78.0,62.0,-100.00,SSE,147,9.0,16.0,57,0.00,,,0.00,123.000000,,2013-09-28 00:42:00,
2013-09-27 20:12:00,74.0,61.0,-100.00,SE,140,9.0,13.0,64,0.00,,,0.00,4.000000,,2013-09-28 01:12:00,
2013-09-27 20:22:00,74.0,61.0,-100.00,SE,140,9.0,13.0,64,0.00,,,0.00,4.000000,,2013-09-28 01:22:00,
2013-09-27 20:32:00,74.0,61.0,-100.00,SE,140,9.0,13.0,64,0.00,,,0.00,4.000000,,2013-09-28 01:32:00,
2013-09-27 20:42:00,74.0,61.0,-100.00,SE,140,9.0,13.0,64,0.00,,,0.00,4.000000,,2013-09-28 01:42:00,
2013-09-27 21:12:00,73.0,61.0,-100.00,SE,136,10.0,16.0,65,0.00,,,0.00,0.000000,,2013-09-28 02:12:00,
2013-09-27 21:22:00,73.0,61.0,-100.00,SE,136,10.0,16.0,65,0.00,,,0.00,0.000000,,2013-09-28 02:22:00,
2013-09-27 21:32:00,73.0,61.0,-100.00,SE,136,10.0,16.0,65,0.00,,,0.00,0.000000,,2013-09-28 02:32:00,
2013-09-27 21:42:00,73.0,61.0,-100.00,SE,136,10.0,16.0,65,0.00,,,0.00,0.000000,,2013-09-28 02:42:00,
2013-09-27 22:12:00,72.0,60.0,-100.00,SSE,147,10.0,20.0,65,0.00,,,0.00,0.000000,,2013-09-28 03:12:00,
2013-09-27 22:22:00,72.0,60.0,-100.00,SSE,147,10.0,20.0,65,0.00,,,0.00,0.000000,,2013-09-28 03:22:00,
2013-09-27 22:34:00,72.0,60.0,-100.00,SSE,147,10.0,20.0,65,0.00,,,0.00,0.000000,,2013-09-28 03:34:00,
2013-09-27 22:45:00,72.0,60.0,-100.00,SSE,147,10.0,20.0,65,0.00,,,0.00,0.000000,,2013-09-28 03:45:00,
2013-09-27 23:13:00,70.0,60.0,-100.00,SE,140,10.0,15.0,70,0.00,,,0.00,0.000000,,2013-09-28 04:13:00,
2013-09-27 23:25:00,70.0,60.0,-100.00,SE,140,10.0,15.0,70,0.00,,,0.00,0.000000,,2013-09-28 04:25:00,
2013-09-27 23:34:00,70.0,60.0,-100.00,SE,140,10.0,15.0,70,0.00,,,0.00,0.000000,,2013-09-28 04:34:00,
2013-09-27 23:43:00,70.0,60.0,-100.00,SE,140,10.0,15.0,70,0.00,,,0.00,0.000000,,2013-09-28 04:43:00,